Terminal Aerodrome Forecast
Issued by NWS Buffalo, NY

Home | Current Version | Previous Version | Text Only | Print | Product List | Glossary On
Versions: 1 2 3 4 5 6 7 8 9 10 11 12 13 14 15 16 17 18 19 20 21 22 23 24 25 26 27
950
FTUS41 KBUF 202056 AAA
TAFBUF
TAF AMD
KBUF 202056Z 2021/2118 24020G32KT P6SM SCT250
     FM202200 24017G23KT P6SM SCT120
     FM210500 24010G21KT P6SM BKN035
     FM210700 24009KT P6SM BKN025
     FM211600 23005KT P6SM OVC020=

USA.gov is the U.S. government's official web portal to all federal, state and local government web resources and services.